createdAt,value
2023-03-25T00:05:01.019Z,99416.20
2023-03-25T00:10:08.550Z,99409.29
2023-03-25T00:15:17.973Z,99404.47
2023-03-25T00:20:25.926Z,99401.23
2023-03-25T00:25:36.195Z,99405.73
2023-03-25T00:30:43.049Z,99398.03
2023-03-25T00:35:54.444Z,99399.38
2023-03-25T00:41:00.219Z,99404.86
2023-03-25T00:46:06.401Z,99410.80
2023-03-25T00:51:14.448Z,99407.23
2023-03-25T00:56:20.414Z,99411.47
2023-03-25T01:01:28.800Z,99407.14
2023-03-25T01:06:38.874Z,99413.11
2023-03-25T01:11:47.339Z,99407.98
2023-03-25T01:16:53.036Z,99404.05
2023-03-25T01:21:58.399Z,99409.73
2023-03-25T01:27:04.435Z,99408.52
2023-03-25T01:32:09.883Z,99407.58
2023-03-25T01:37:15.711Z,99408.14
2023-03-25T01:42:21.074Z,99406.63
2023-03-25T01:47:27.520Z,99401.66
2023-03-25T01:52:33.342Z,99399.49
2023-03-25T01:57:44.011Z,99399.13
2023-03-25T02:02:50.973Z,99399.30
2023-03-25T02:07:59.098Z,99394.41
2023-03-25T02:13:06.392Z,99403.59
2023-03-25T02:18:27.037Z,99415.89
2023-03-25T02:23:48.254Z,99413.88
2023-03-25T02:28:56.356Z,99407.80
2023-03-25T02:34:29.309Z,99398.38
2023-03-25T02:39:41.427Z,99394.92
2023-03-25T02:44:55.969Z,99391.80
2023-03-25T02:50:07.838Z,99390.15
2023-03-25T02:55:17.757Z,99398.36
2023-03-25T03:00:28.512Z,99400.45
2023-03-25T03:05:36.401Z,99404.60
2023-03-25T03:10:52.889Z,99406.74
2023-03-25T03:20:35.364Z,99409.73
2023-03-25T03:25:51.006Z,99411.12
2023-03-25T03:31:07.136Z,99421.20
2023-03-25T03:36:17.240Z,99424.46
2023-03-25T03:41:27.087Z,99429.55
2023-03-25T03:46:36.523Z,99426.08
2023-03-25T03:51:47.219Z,99419.52
2023-03-25T03:56:57.211Z,99411.75
2023-03-25T04:02:06.822Z,99415.38
2023-03-25T04:07:17.220Z,99423.16
2023-03-25T04:12:25.309Z,99430.11
2023-03-25T04:17:33.112Z,99434.37
2023-03-25T04:22:39.207Z,99437.08
2023-03-25T04:27:49.195Z,99448.30
2023-03-25T04:32:55.530Z,99449.66
2023-03-25T04:38:01.827Z,99450.14
2023-03-25T04:43:08.098Z,99455.83
2023-03-25T04:48:21.611Z,99460.08
2023-03-25T04:53:27.988Z,99451.31
2023-03-25T04:58:33.790Z,99448.58
2023-03-25T05:03:40.205Z,99443.89
2023-03-25T05:08:45.907Z,99442.05
2023-03-25T05:13:51.323Z,99447.89
2023-03-25T05:18:56.636Z,99453.84
2023-03-25T05:24:02.206Z,99450.92
2023-03-25T05:29:10.482Z,99454.56
2023-03-25T05:34:17.345Z,99454.19
2023-03-25T05:39:24.412Z,99455.95
2023-03-25T05:44:30.329Z,99464.75
2023-03-25T05:49:35.946Z,99470.64
2023-03-25T05:54:42.113Z,99476.49
2023-03-25T05:59:48.133Z,99468.64
2023-03-25T06:04:54.386Z,99472.30
2023-03-25T06:09:59.984Z,99475.86
2023-03-25T06:15:07.005Z,99473.41
2023-03-25T06:20:19.293Z,99475.75
2023-03-25T06:25:26.668Z,99477.20
2023-03-25T06:30:32.444Z,99478.48
2023-03-25T06:35:38.269Z,99474.83
2023-03-25T06:40:43.751Z,99471.03
2023-03-25T06:45:53.383Z,99468.33
2023-03-25T06:51:09.750Z,99468.23
2023-03-25T06:56:17.494Z,99469.86
2023-03-25T07:01:24.382Z,99473.37
2023-03-25T07:06:32.316Z,99471.40
2023-03-25T07:11:38.652Z,99465.52
2023-03-25T07:16:44.176Z,99456.40
2023-03-25T07:21:49.667Z,99450.76
2023-03-25T07:26:55.155Z,99456.41
2023-03-25T07:32:03.584Z,99459.56
2023-03-25T07:37:09.883Z,99457.63
2023-03-25T07:42:15.428Z,99455.73
2023-03-25T07:47:42.503Z,99462.18
2023-03-25T07:52:48.243Z,99455.48
2023-03-25T07:57:54.429Z,99449.36
2023-03-25T08:03:00.818Z,99458.52
2023-03-25T08:08:08.233Z,99454.89
2023-03-25T08:13:13.963Z,99457.98
2023-03-25T08:18:19.799Z,99454.73
2023-03-25T08:23:26.779Z,99455.14
2023-03-25T08:28:33.510Z,99452.20
2023-03-25T08:33:41.365Z,99454.30
2023-03-25T08:38:47.360Z,99458.28
2023-03-25T08:43:53.146Z,99456.36
2023-03-25T08:48:58.805Z,99464.17
2023-03-25T08:54:04.555Z,99452.20
2023-03-25T08:59:12.925Z,99438.49
2023-03-25T09:04:18.730Z,99433.98
2023-03-25T09:09:24.310Z,99431.49
2023-03-25T09:14:30.694Z,99431.10
2023-03-25T09:19:38.101Z,99432.95
2023-03-25T09:24:43.925Z,99429.35
2023-03-25T09:29:49.860Z,99428.61
2023-03-25T09:34:55.271Z,99424.98
2023-03-25T09:40:00.899Z,99422.41
2023-03-25T09:45:22.143Z,99419.88
2023-03-25T09:50:34.219Z,99417.52
2023-03-25T09:55:44.762Z,99415.67
2023-03-25T10:00:56.912Z,99418.13
2023-03-25T10:06:18.880Z,99423.98
2023-03-25T10:11:34.526Z,99427.09
2023-03-25T10:16:50.926Z,99421.84
2023-03-25T10:22:03.927Z,99417.55
2023-03-25T10:27:17.944Z,99425.20
2023-03-25T10:32:31.446Z,99427.54
2023-03-25T10:37:42.230Z,99420.97
2023-03-25T10:43:10.279Z,99417.94
2023-03-25T10:48:22.896Z,99414.46
2023-03-25T10:53:30.143Z,99399.13
2023-03-25T10:58:38.800Z,99401.14
2023-03-25T11:03:46.312Z,99398.16
2023-03-25T11:09:13.902Z,99390.53
2023-03-25T11:14:24.608Z,99381.92
2023-03-25T11:19:36.884Z,99378.42
2023-03-25T11:24:48.265Z,99373.48
2023-03-25T11:29:57.748Z,99367.86
2023-03-25T11:35:15.919Z,99357.04
2023-03-25T11:40:22.292Z,99346.29
2023-03-25T11:45:35.771Z,99345.71
2023-03-25T11:50:52.194Z,99340.58
2023-03-25T11:56:04.838Z,99335.60
2023-03-25T12:01:24.659Z,99324.61
2023-03-25T12:06:30.924Z,99325.71
2023-03-25T12:11:42.679Z,99323.81
2023-03-25T12:16:57.264Z,99312.50
2023-03-25T12:22:17.782Z,99305.39
2023-03-25T12:27:34.481Z,99304.55
2023-03-25T12:32:50.479Z,99298.67
2023-03-25T12:38:13.654Z,99292.35
2023-03-25T12:43:25.651Z,99285.06
2023-03-25T12:48:56.741Z,99282.08
2023-03-25T12:54:12.832Z,99278.40
2023-03-25T12:59:50.210Z,99275.52
2023-03-25T13:05:14.466Z,99278.55
2023-03-25T13:10:21.622Z,99279.09
2023-03-25T13:15:31.201Z,99273.44
2023-03-25T13:20:41.809Z,99272.70
2023-03-25T13:25:53.125Z,99275.40
2023-03-25T13:31:01.249Z,99286.61
2023-03-25T13:36:16.188Z,99286.99
2023-03-25T13:41:26.342Z,99278.52
2023-03-25T13:46:36.593Z,99265.23
2023-03-25T13:51:42.135Z,99255.00
2023-03-25T13:57:12.434Z,99255.27
2023-03-25T14:02:36.324Z,99257.93
2023-03-25T14:08:13.032Z,99254.87
2023-03-25T14:13:22.998Z,99254.16
2023-03-25T14:18:32.152Z,99261.02
2023-03-25T14:23:38.020Z,99264.29
2023-03-25T14:28:47.861Z,99258.15
2023-03-25T14:34:20.396Z,99257.27
2023-03-25T14:39:40.467Z,99249.27
2023-03-25T14:44:54.826Z,99258.13
2023-03-25T14:50:34.314Z,99263.05
2023-03-25T14:55:46.544Z,99259.03
2023-03-25T15:00:58.655Z,99261.23
2023-03-25T15:06:09.265Z,99263.71
2023-03-25T15:11:18.351Z,99268.40
2023-03-25T15:16:34.371Z,99270.36
2023-03-25T15:22:17.624Z,99288.25
2023-03-25T15:27:39.503Z,99294.73
2023-03-25T15:32:54.984Z,99306.01
2023-03-25T15:38:24.800Z,99305.42
2023-03-25T15:44:02.264Z,99312.30
2023-03-25T15:49:29.354Z,99309.35
2023-03-25T15:54:40.478Z,99313.44
2023-03-25T15:59:51.470Z,99320.48
2023-03-25T16:04:57.277Z,99320.27
2023-03-25T16:10:14.977Z,99315.38
2023-03-25T16:15:27.221Z,99294.81
2023-03-25T16:20:35.475Z,99304.79
2023-03-25T16:25:42.593Z,99314.63
2023-03-25T16:30:53.419Z,99318.01
2023-03-25T16:35:59.503Z,99325.52
2023-03-25T16:41:10.640Z,99329.20
2023-03-25T16:46:20.032Z,99333.59
2023-03-25T16:51:29.393Z,99329.71
2023-03-25T16:56:39.182Z,99327.20
2023-03-25T17:01:52.315Z,99332.66
2023-03-25T17:07:01.706Z,99328.91
2023-03-25T17:12:15.534Z,99327.27
2023-03-25T17:17:33.811Z,99333.10
2023-03-25T17:22:40.140Z,99342.64
2023-03-25T17:27:47.661Z,99350.10
2023-03-25T17:32:53.277Z,99351.65
2023-03-25T17:37:59.809Z,99360.25
2023-03-25T17:43:05.463Z,99352.95
2023-03-25T17:48:18.873Z,99357.71
2023-03-25T17:53:24.860Z,99366.69
2023-03-25T17:58:31.291Z,99356.86
2023-03-25T18:03:37.383Z,99353.01
2023-03-25T18:08:43.018Z,99350.80
2023-03-25T18:13:48.772Z,99355.74
2023-03-25T18:18:54.468Z,99359.63
2023-03-25T18:23:59.802Z,99366.29
2023-03-25T18:29:09.861Z,99358.98
2023-03-25T18:34:15.762Z,99355.64
2023-03-25T18:39:25.564Z,99359.56
2023-03-25T18:44:31.026Z,99354.70
2023-03-25T18:49:36.371Z,99360.03
2023-03-25T18:54:41.922Z,99358.34
2023-03-25T18:59:47.472Z,99358.44
2023-03-25T19:05:00.786Z,99363.63
2023-03-25T19:10:11.823Z,99361.33
2023-03-25T19:15:19.320Z,99358.05
2023-03-25T19:20:29.826Z,99354.95
2023-03-25T19:25:36.958Z,99370.33
2023-03-25T19:30:44.030Z,99370.30
2023-03-25T19:35:58.227Z,99360.90
2023-03-25T19:41:07.143Z,99353.84
2023-03-25T19:46:12.589Z,99349.19
2023-03-25T19:51:18.228Z,99346.34
2023-03-25T19:56:23.969Z,99348.85
2023-03-25T20:01:29.593Z,99343.58
2023-03-25T20:06:37.186Z,99354.02
2023-03-25T20:11:42.825Z,99359.40
2023-03-25T20:16:48.336Z,99357.25
2023-03-25T20:21:54.057Z,99355.65
2023-03-25T20:26:59.896Z,99353.98
2023-03-25T20:32:06.462Z,99356.36
2023-03-25T20:37:12.132Z,99358.95
2023-03-25T20:42:17.681Z,99362.16
2023-03-25T20:47:23.161Z,99358.65
2023-03-25T20:52:28.999Z,99356.64
2023-03-25T20:57:34.925Z,99356.44
2023-03-25T21:02:41.455Z,99358.27
2023-03-25T21:07:48.383Z,99356.08
2023-03-25T21:12:53.744Z,99357.27
2023-03-25T21:17:59.762Z,99357.88
2023-03-25T21:23:07.134Z,99354.54
2023-03-25T21:28:13.097Z,99349.19
2023-03-25T21:33:18.560Z,99347.51
2023-03-25T21:38:28.790Z,99346.46
2023-03-25T21:43:39.720Z,99346.38
2023-03-25T21:48:46.889Z,99344.40
2023-03-25T21:53:52.847Z,99343.48
2023-03-25T21:58:58.733Z,99339.73
2023-03-25T22:04:04.359Z,99342.16
2023-03-25T22:09:10.227Z,99337.48
2023-03-25T22:14:15.871Z,99337.21
2023-03-25T22:19:24.401Z,99335.16
2023-03-25T22:24:30.752Z,99341.44
2023-03-25T22:29:37.641Z,99344.30
2023-03-25T22:34:43.217Z,99345.44
2023-03-25T22:39:50.436Z,99350.66
2023-03-25T22:44:55.818Z,99350.73
2023-03-25T22:50:01.447Z,99351.54
2023-03-25T22:55:08.549Z,99347.71
2023-03-25T23:00:15.903Z,99348.90
2023-03-25T23:05:21.380Z,99344.73
2023-03-25T23:10:26.993Z,99350.42
2023-03-25T23:15:32.428Z,99348.48
2023-03-25T23:20:37.913Z,99340.88
2023-03-25T23:25:43.255Z,99333.70
2023-03-25T23:30:48.690Z,99336.69
2023-03-25T23:35:58.016Z,99335.10
2023-03-25T23:41:06.660Z,99334.40
2023-03-25T23:46:13.638Z,99335.91
2023-03-25T23:51:22.697Z,99332.38
2023-03-25T23:56:28.985Z,99322.06
